sensor_id;sensor_type;location;lat;lon;timestamp;P1;durP1;ratioP1;P2;durP2;ratioP2
55082;SDS011;40978;52.850;6.506;2023-04-19T00:00:36;14.07;;;10.80;;
55082;SDS011;40978;52.850;6.506;2023-04-19T00:03:02;12.75;;;9.60;;
55082;SDS011;40978;52.850;6.506;2023-04-19T00:05:29;12.43;;;9.07;;
55082;SDS011;40978;52.850;6.506;2023-04-19T00:07:55;11.50;;;9.15;;
55082;SDS011;40978;52.850;6.506;2023-04-19T00:10:21;12.35;;;9.50;;
55082;SDS011;40978;52.850;6.506;2023-04-19T00:12:47;11.88;;;9.43;;
55082;SDS011;40978;52.850;6.506;2023-04-19T00:15:12;12.68;;;10.07;;
55082;SDS011;40978;52.850;6.506;2023-04-19T00:17:38;11.85;;;8.90;;
55082;SDS011;40978;52.850;6.506;2023-04-19T00:20:04;11.70;;;9.30;;
55082;SDS011;40978;52.850;6.506;2023-04-19T00:22:30;12.98;;;8.98;;
55082;SDS011;40978;52.850;6.506;2023-04-19T00:24:56;10.45;;;8.80;;
55082;SDS011;40978;52.850;6.506;2023-04-19T00:27:22;11.50;;;9.02;;
55082;SDS011;40978;52.850;6.506;2023-04-19T00:29:48;10.88;;;8.65;;
55082;SDS011;40978;52.850;6.506;2023-04-19T00:32:14;11.27;;;8.40;;
55082;SDS011;40978;52.850;6.506;2023-04-19T00:34:40;9.80;;;8.80;;
55082;SDS011;40978;52.850;6.506;2023-04-19T00:37:06;10.57;;;8.52;;
55082;SDS011;40978;52.850;6.506;2023-04-19T00:39:33;11.35;;;9.05;;
55082;SDS011;40978;52.850;6.506;2023-04-19T00:41:58;10.18;;;8.35;;
55082;SDS011;40978;52.850;6.506;2023-04-19T00:44:25;12.98;;;8.43;;
55082;SDS011;40978;52.850;6.506;2023-04-19T00:46:51;10.55;;;8.10;;
55082;SDS011;40978;52.850;6.506;2023-04-19T00:49:17;12.15;;;8.43;;
55082;SDS011;40978;52.850;6.506;2023-04-19T00:51:45;12.52;;;8.07;;
55082;SDS011;40978;52.850;6.506;2023-04-19T00:54:12;11.07;;;8.70;;
55082;SDS011;40978;52.850;6.506;2023-04-19T00:56:38;12.25;;;9.02;;
55082;SDS011;40978;52.850;6.506;2023-04-19T00:59:05;9.60;;;8.18;;
55082;SDS011;40978;52.850;6.506;2023-04-19T01:01:31;13.40;;;8.23;;
55082;SDS011;40978;52.850;6.506;2023-04-19T01:03:58;8.95;;;8.00;;
55082;SDS011;40978;52.850;6.506;2023-04-19T01:06:25;10.73;;;7.90;;
55082;SDS011;40978;52.850;6.506;2023-04-19T01:08:52;9.93;;;7.75;;
55082;SDS011;40978;52.850;6.506;2023-04-19T01:11:18;12.07;;;8.35;;
55082;SDS011;40978;52.850;6.506;2023-04-19T01:13:44;8.80;;;7.88;;
55082;SDS011;40978;52.850;6.506;2023-04-19T01:16:10;8.73;;;7.60;;
55082;SDS011;40978;52.850;6.506;2023-04-19T01:18:35;11.63;;;8.20;;
55082;SDS011;40978;52.850;6.506;2023-04-19T01:21:03;9.60;;;7.95;;
55082;SDS011;40978;52.850;6.506;2023-04-19T01:23:29;10.05;;;8.15;;
55082;SDS011;40978;52.850;6.506;2023-04-19T01:25:55;10.18;;;7.85;;
55082;SDS011;40978;52.850;6.506;2023-04-19T01:28:21;12.75;;;7.75;;
55082;SDS011;40978;52.850;6.506;2023-04-19T01:30:46;11.68;;;7.55;;
55082;SDS011;40978;52.850;6.506;2023-04-19T01:33:15;9.65;;;7.25;;
55082;SDS011;40978;52.850;6.506;2023-04-19T01:35:41;10.70;;;7.70;;
55082;SDS011;40978;52.850;6.506;2023-04-19T01:38:07;10.10;;;8.48;;
55082;SDS011;40978;52.850;6.506;2023-04-19T01:40:32;8.75;;;7.38;;
55082;SDS011;40978;52.850;6.506;2023-04-19T01:42:58;10.13;;;7.78;;
55082;SDS011;40978;52.850;6.506;2023-04-19T01:45:24;10.02;;;7.63;;
55082;SDS011;40978;52.850;6.506;2023-04-19T01:47:50;10.10;;;7.57;;
55082;SDS011;40978;52.850;6.506;2023-04-19T01:50:16;10.60;;;7.35;;
55082;SDS011;40978;52.850;6.506;2023-04-19T01:52:42;8.68;;;7.35;;
55082;SDS011;40978;52.850;6.506;2023-04-19T01:55:07;9.60;;;7.35;;
55082;SDS011;40978;52.850;6.506;2023-04-19T01:57:33;10.32;;;7.97;;
55082;SDS011;40978;52.850;6.506;2023-04-19T01:59:59;11.27;;;7.40;;
55082;SDS011;40978;52.850;6.506;2023-04-19T02:02:26;11.52;;;7.72;;
55082;SDS011;40978;52.850;6.506;2023-04-19T02:04:51;10.07;;;8.05;;
55082;SDS011;40978;52.850;6.506;2023-04-19T02:07:17;8.13;;;7.30;;
55082;SDS011;40978;52.850;6.506;2023-04-19T02:09:43;12.48;;;6.78;;
55082;SDS011;40978;52.850;6.506;2023-04-19T02:12:08;11.18;;;7.65;;
55082;SDS011;40978;52.850;6.506;2023-04-19T02:14:34;10.27;;;7.32;;
55082;SDS011;40978;52.850;6.506;2023-04-19T02:17:00;11.10;;;7.50;;
55082;SDS011;40978;52.850;6.506;2023-04-19T02:19:26;12.35;;;7.03;;
55082;SDS011;40978;52.850;6.506;2023-04-19T02:21:51;7.78;;;6.88;;
55082;SDS011;40978;52.850;6.506;2023-04-19T02:24:21;11.90;;;7.40;;
55082;SDS011;40978;52.850;6.506;2023-04-19T02:26:48;10.88;;;7.13;;
55082;SDS011;40978;52.850;6.506;2023-04-19T02:29:14;10.50;;;7.63;;
55082;SDS011;40978;52.850;6.506;2023-04-19T02:31:41;11.32;;;8.55;;
55082;SDS011;40978;52.850;6.506;2023-04-19T02:34:09;13.40;;;7.78;;
55082;SDS011;40978;52.850;6.506;2023-04-19T02:36:34;10.90;;;8.48;;
55082;SDS011;40978;52.850;6.506;2023-04-19T02:39:00;11.57;;;9.05;;
55082;SDS011;40978;52.850;6.506;2023-04-19T02:41:26;11.55;;;8.55;;
55082;SDS011;40978;52.850;6.506;2023-04-19T02:43:51;10.35;;;9.13;;
55082;SDS011;40978;52.850;6.506;2023-04-19T02:46:17;14.50;;;9.23;;
55082;SDS011;40978;52.850;6.506;2023-04-19T02:48:43;11.13;;;9.02;;
55082;SDS011;40978;52.850;6.506;2023-04-19T02:51:13;11.07;;;8.70;;
55082;SDS011;40978;52.850;6.506;2023-04-19T02:53:40;12.77;;;9.18;;
55082;SDS011;40978;52.850;6.506;2023-04-19T02:56:06;13.25;;;10.35;;
55082;SDS011;40978;52.850;6.506;2023-04-19T02:58:32;13.32;;;10.10;;
55082;SDS011;40978;52.850;6.506;2023-04-19T03:00:58;12.73;;;10.25;;
55082;SDS011;40978;52.850;6.506;2023-04-19T03:03:24;13.85;;;9.23;;
55082;SDS011;40978;52.850;6.506;2023-04-19T03:05:50;13.57;;;10.45;;
55082;SDS011;40978;52.850;6.506;2023-04-19T03:08:17;15.77;;;9.20;;
55082;SDS011;40978;52.850;6.506;2023-04-19T03:10:43;11.38;;;8.50;;
55082;SDS011;40978;52.850;6.506;2023-04-19T03:13:08;12.80;;;9.55;;
55082;SDS011;40978;52.850;6.506;2023-04-19T03:15:34;11.13;;;9.90;;
55082;SDS011;40978;52.850;6.506;2023-04-19T03:18:00;15.68;;;10.90;;
55082;SDS011;40978;52.850;6.506;2023-04-19T03:20:26;11.52;;;9.60;;
55082;SDS011;40978;52.850;6.506;2023-04-19T03:22:52;16.58;;;10.18;;
55082;SDS011;40978;52.850;6.506;2023-04-19T03:25:17;13.95;;;9.77;;
55082;SDS011;40978;52.850;6.506;2023-04-19T03:27:43;13.25;;;10.45;;
55082;SDS011;40978;52.850;6.506;2023-04-19T03:30:10;13.38;;;10.43;;
55082;SDS011;40978;52.850;6.506;2023-04-19T03:32:36;13.95;;;9.88;;
55082;SDS011;40978;52.850;6.506;2023-04-19T03:35:02;14.88;;;9.38;;
55082;SDS011;40978;52.850;6.506;2023-04-19T03:37:28;13.65;;;9.55;;
55082;SDS011;40978;52.850;6.506;2023-04-19T03:39:54;14.15;;;9.95;;
55082;SDS011;40978;52.850;6.506;2023-04-19T03:42:20;13.88;;;9.70;;
55082;SDS011;40978;52.850;6.506;2023-04-19T03:44:45;13.98;;;9.43;;
55082;SDS011;40978;52.850;6.506;2023-04-19T03:47:11;13.48;;;9.25;;
55082;SDS011;40978;52.850;6.506;2023-04-19T03:49:37;13.68;;;9.77;;
55082;SDS011;40978;52.850;6.506;2023-04-19T03:52:02;13.05;;;9.48;;
55082;SDS011;40978;52.850;6.506;2023-04-19T03:54:28;12.57;;;9.18;;
55082;SDS011;40978;52.850;6.506;2023-04-19T03:56:54;13.18;;;8.82;;
55082;SDS011;40978;52.850;6.506;2023-04-19T03:59:21;12.35;;;8.77;;
55082;SDS011;40978;52.850;6.506;2023-04-19T04:01:46;12.95;;;8.80;;
55082;SDS011;40978;52.850;6.506;2023-04-19T04:04:12;13.13;;;8.35;;
55082;SDS011;40978;52.850;6.506;2023-04-19T04:06:38;10.27;;;8.10;;
55082;SDS011;40978;52.850;6.506;2023-04-19T04:09:03;11.75;;;8.82;;
55082;SDS011;40978;52.850;6.506;2023-04-19T04:11:29;10.77;;;8.35;;
55082;SDS011;40978;52.850;6.506;2023-04-19T04:13:55;11.85;;;8.30;;
55082;SDS011;40978;52.850;6.506;2023-04-19T04:16:21;10.00;;;7.72;;
55082;SDS011;40978;52.850;6.506;2023-04-19T04:18:47;11.57;;;8.95;;
55082;SDS011;40978;52.850;6.506;2023-04-19T04:21:12;10.75;;;8.15;;
55082;SDS011;40978;52.850;6.506;2023-04-19T04:23:38;12.23;;;8.52;;
55082;SDS011;40978;52.850;6.506;2023-04-19T04:26:04;10.35;;;8.23;;
55082;SDS011;40978;52.850;6.506;2023-04-19T04:28:30;12.10;;;7.63;;
55082;SDS011;40978;52.850;6.506;2023-04-19T04:30:56;13.25;;;8.05;;
55082;SDS011;40978;52.850;6.506;2023-04-19T04:33:26;8.68;;;7.20;;
55082;SDS011;40978;52.850;6.506;2023-04-19T04:35:53;11.05;;;7.90;;
55082;SDS011;40978;52.850;6.506;2023-04-19T04:38:20;9.95;;;7.78;;
55082;SDS011;40978;52.850;6.506;2023-04-19T04:40:49;9.60;;;7.60;;
55082;SDS011;40978;52.850;6.506;2023-04-19T04:43:18;10.38;;;7.78;;
55082;SDS011;40978;52.850;6.506;2023-04-19T04:45:45;11.60;;;8.10;;
55082;SDS011;40978;52.850;6.506;2023-04-19T04:48:11;12.00;;;7.18;;
55082;SDS011;40978;52.850;6.506;2023-04-19T04:50:37;12.10;;;7.20;;
55082;SDS011;40978;52.850;6.506;2023-04-19T04:53:03;8.48;;;7.05;;
55082;SDS011;40978;52.850;6.506;2023-04-19T04:55:29;10.90;;;6.95;;
55082;SDS011;40978;52.850;6.506;2023-04-19T04:57:54;9.60;;;7.93;;
55082;SDS011;40978;52.850;6.506;2023-04-19T05:00:21;10.13;;;7.30;;
55082;SDS011;40978;52.850;6.506;2023-04-19T05:02:47;8.80;;;6.97;;
55082;SDS011;40978;52.850;6.506;2023-04-19T05:05:13;10.80;;;7.10;;
55082;SDS011;40978;52.850;6.506;2023-04-19T05:07:39;8.88;;;7.07;;
55082;SDS011;40978;52.850;6.506;2023-04-19T05:10:05;8.77;;;6.78;;
55082;SDS011;40978;52.850;6.506;2023-04-19T05:12:31;10.60;;;6.57;;
55082;SDS011;40978;52.850;6.506;2023-04-19T05:14:57;9.50;;;7.20;;
55082;SDS011;40978;52.850;6.506;2023-04-19T05:17:23;8.07;;;6.22;;
55082;SDS011;40978;52.850;6.506;2023-04-19T05:19:49;11.70;;;6.85;;
55082;SDS011;40978;52.850;6.506;2023-04-19T05:22:15;8.10;;;6.15;;
55082;SDS011;40978;52.850;6.506;2023-04-19T05:24:41;10.55;;;6.38;;
55082;SDS011;40978;52.850;6.506;2023-04-19T05:27:06;10.07;;;6.38;;
55082;SDS011;40978;52.850;6.506;2023-04-19T05:29:33;8.90;;;6.28;;
55082;SDS011;40978;52.850;6.506;2023-04-19T05:31:59;7.60;;;5.63;;
55082;SDS011;40978;52.850;6.506;2023-04-19T05:34:25;8.60;;;5.88;;
55082;SDS011;40978;52.850;6.506;2023-04-19T05:36:50;7.85;;;6.28;;
55082;SDS011;40978;52.850;6.506;2023-04-19T05:39:16;10.85;;;5.70;;
55082;SDS011;40978;52.850;6.506;2023-04-19T05:41:42;9.15;;;6.00;;
55082;SDS011;40978;52.850;6.506;2023-04-19T05:44:08;8.52;;;5.53;;
55082;SDS011;40978;52.850;6.506;2023-04-19T05:46:33;8.90;;;6.05;;
55082;SDS011;40978;52.850;6.506;2023-04-19T05:49:00;8.68;;;5.28;;
55082;SDS011;40978;52.850;6.506;2023-04-19T05:51:26;7.97;;;5.03;;
55082;SDS011;40978;52.850;6.506;2023-04-19T05:53:52;7.80;;;5.47;;
55082;SDS011;40978;52.850;6.506;2023-04-19T05:56:18;8.57;;;5.22;;
55082;SDS011;40978;52.850;6.506;2023-04-19T05:58:44;6.40;;;4.80;;
55082;SDS011;40978;52.850;6.506;2023-04-19T06:01:10;6.88;;;5.18;;
55082;SDS011;40978;52.850;6.506;2023-04-19T06:03:36;8.27;;;4.43;;
55082;SDS011;40978;52.850;6.506;2023-04-19T06:06:01;6.88;;;4.38;;
55082;SDS011;40978;52.850;6.506;2023-04-19T06:08:28;6.25;;;4.20;;
55082;SDS011;40978;52.850;6.506;2023-04-19T06:10:53;7.35;;;4.60;;
55082;SDS011;40978;52.850;6.506;2023-04-19T06:13:20;6.25;;;4.22;;
55082;SDS011;40978;52.850;6.506;2023-04-19T06:15:47;5.15;;;3.85;;
55082;SDS011;40978;52.850;6.506;2023-04-19T06:18:13;6.30;;;4.30;;
55082;SDS011;40978;52.850;6.506;2023-04-19T06:20:39;6.10;;;3.97;;
55082;SDS011;40978;52.850;6.506;2023-04-19T06:23:05;5.05;;;3.85;;
55082;SDS011;40978;52.850;6.506;2023-04-19T06:25:31;6.63;;;3.85;;
55082;SDS011;40978;52.850;6.506;2023-04-19T06:27:57;6.85;;;3.80;;
55082;SDS011;40978;52.850;6.506;2023-04-19T06:30:23;5.40;;;4.18;;
55082;SDS011;40978;52.850;6.506;2023-04-19T06:32:49;5.55;;;3.85;;
55082;SDS011;40978;52.850;6.506;2023-04-19T06:35:14;6.63;;;3.72;;
55082;SDS011;40978;52.850;6.506;2023-04-19T06:37:40;8.73;;;3.65;;
55082;SDS011;40978;52.850;6.506;2023-04-19T06:40:06;7.78;;;3.70;;
55082;SDS011;40978;52.850;6.506;2023-04-19T06:42:33;6.93;;;3.28;;
55082;SDS011;40978;52.850;6.506;2023-04-19T06:44:59;4.22;;;2.92;;
55082;SDS011;40978;52.850;6.506;2023-04-19T06:47:25;4.88;;;3.25;;
55082;SDS011;40978;52.850;6.506;2023-04-19T06:49:51;5.82;;;3.88;;
55082;SDS011;40978;52.850;6.506;2023-04-19T06:52:17;5.25;;;3.10;;
55082;SDS011;40978;52.850;6.506;2023-04-19T06:54:46;7.18;;;3.00;;
55082;SDS011;40978;52.850;6.506;2023-04-19T06:57:13;5.30;;;3.00;;
55082;SDS011;40978;52.850;6.506;2023-04-19T06:59:39;5.88;;;2.78;;
55082;SDS011;40978;52.850;6.506;2023-04-19T07:02:05;7.22;;;3.20;;
55082;SDS011;40978;52.850;6.506;2023-04-19T07:04:31;5.72;;;2.88;;
55082;SDS011;40978;52.850;6.506;2023-04-19T07:06:57;8.10;;;2.78;;
55082;SDS011;40978;52.850;6.506;2023-04-19T07:09:22;6.20;;;3.15;;
55082;SDS011;40978;52.850;6.506;2023-04-19T07:11:48;3.80;;;2.58;;
55082;SDS011;40978;52.850;6.506;2023-04-19T07:14:15;4.25;;;2.85;;
55082;SDS011;40978;52.850;6.506;2023-04-19T07:16:43;4.30;;;2.10;;
55082;SDS011;40978;52.850;6.506;2023-04-19T07:19:10;2.97;;;2.30;;
55082;SDS011;40978;52.850;6.506;2023-04-19T07:21:36;5.00;;;2.35;;
55082;SDS011;40978;52.850;6.506;2023-04-19T07:24:03;6.40;;;2.25;;
55082;SDS011;40978;52.850;6.506;2023-04-19T07:26:30;4.97;;;2.20;;
55082;SDS011;40978;52.850;6.506;2023-04-19T07:28:57;4.57;;;2.38;;
55082;SDS011;40978;52.850;6.506;2023-04-19T07:31:24;4.25;;;2.10;;
55082;SDS011;40978;52.850;6.506;2023-04-19T07:33:50;2.25;;;1.77;;
55082;SDS011;40978;52.850;6.506;2023-04-19T07:36:16;3.20;;;1.58;;
55082;SDS011;40978;52.850;6.506;2023-04-19T07:38:42;2.30;;;1.70;;
55082;SDS011;40978;52.850;6.506;2023-04-19T07:41:08;3.10;;;1.50;;
55082;SDS011;40978;52.850;6.506;2023-04-19T07:43:34;2.58;;;1.85;;
55082;SDS011;40978;52.850;6.506;2023-04-19T07:46:01;3.00;;;1.75;;
55082;SDS011;40978;52.850;6.506;2023-04-19T07:48:32;3.25;;;2.05;;
55082;SDS011;40978;52.850;6.506;2023-04-19T07:51:06;3.25;;;1.70;;
55082;SDS011;40978;52.850;6.506;2023-04-19T07:53:33;4.10;;;1.70;;
55082;SDS011;40978;52.850;6.506;2023-04-19T07:55:59;3.10;;;1.60;;
55082;SDS011;40978;52.850;6.506;2023-04-19T07:58:24;3.33;;;1.70;;
55082;SDS011;40978;52.850;6.506;2023-04-19T08:00:50;2.05;;;1.52;;
55082;SDS011;40978;52.850;6.506;2023-04-19T08:03:16;3.78;;;1.60;;
55082;SDS011;40978;52.850;6.506;2023-04-19T08:05:42;6.10;;;1.63;;
55082;SDS011;40978;52.850;6.506;2023-04-19T08:08:08;3.88;;;1.48;;
55082;SDS011;40978;52.850;6.506;2023-04-19T08:10:33;2.97;;;1.63;;
55082;SDS011;40978;52.850;6.506;2023-04-19T08:13:00;2.90;;;1.80;;
55082;SDS011;40978;52.850;6.506;2023-04-19T08:15:25;2.38;;;1.52;;
55082;SDS011;40978;52.850;6.506;2023-04-19T08:17:51;2.88;;;1.58;;
55082;SDS011;40978;52.850;6.506;2023-04-19T08:20:17;3.05;;;1.40;;
55082;SDS011;40978;52.850;6.506;2023-04-19T08:22:43;2.55;;;1.80;;
55082;SDS011;40978;52.850;6.506;2023-04-19T08:25:09;2.72;;;1.52;;
55082;SDS011;40978;52.850;6.506;2023-04-19T08:27:35;4.30;;;1.90;;
55082;SDS011;40978;52.850;6.506;2023-04-19T08:30:01;2.97;;;1.55;;
55082;SDS011;40978;52.850;6.506;2023-04-19T08:32:27;2.28;;;1.50;;
55082;SDS011;40978;52.850;6.506;2023-04-19T08:34:53;3.10;;;1.73;;
55082;SDS011;40978;52.850;6.506;2023-04-19T08:37:19;4.43;;;2.55;;
55082;SDS011;40978;52.850;6.506;2023-04-19T08:39:44;3.90;;;1.90;;
55082;SDS011;40978;52.850;6.506;2023-04-19T08:42:10;6.05;;;2.00;;
55082;SDS011;40978;52.850;6.506;2023-04-19T08:44:36;3.25;;;1.90;;
55082;SDS011;40978;52.850;6.506;2023-04-19T08:47:03;3.97;;;1.90;;
55082;SDS011;40978;52.850;6.506;2023-04-19T08:49:30;3.72;;;1.85;;
55082;SDS011;40978;52.850;6.506;2023-04-19T08:51:59;2.42;;;1.80;;
55082;SDS011;40978;52.850;6.506;2023-04-19T08:54:26;4.47;;;1.98;;
55082;SDS011;40978;52.850;6.506;2023-04-19T08:56:53;2.90;;;1.77;;
55082;SDS011;40978;52.850;6.506;2023-04-19T08:59:22;4.32;;;1.73;;
55082;SDS011;40978;52.850;6.506;2023-04-19T09:01:48;3.33;;;1.70;;
55082;SDS011;40978;52.850;6.506;2023-04-19T09:04:14;2.38;;;1.50;;
55082;SDS011;40978;52.850;6.506;2023-04-19T09:06:40;2.63;;;1.60;;
55082;SDS011;40978;52.850;6.506;2023-04-19T09:11:48;6.80;;;2.30;;
55082;SDS011;40978;52.850;6.506;2023-04-19T09:14:14;4.47;;;1.67;;
55082;SDS011;40978;52.850;6.506;2023-04-19T09:16:42;2.65;;;1.63;;
55082;SDS011;40978;52.850;6.506;2023-04-19T09:19:09;2.35;;;1.63;;
55082;SDS011;40978;52.850;6.506;2023-04-19T09:21:38;5.43;;;1.88;;
55082;SDS011;40978;52.850;6.506;2023-04-19T09:24:04;2.22;;;1.48;;
55082;SDS011;40978;52.850;6.506;2023-04-19T09:26:31;4.13;;;1.80;;
55082;SDS011;40978;52.850;6.506;2023-04-19T09:29:06;3.17;;;1.48;;
55082;SDS011;40978;52.850;6.506;2023-04-19T09:31:36;3.85;;;1.55;;
55082;SDS011;40978;52.850;6.506;2023-04-19T09:34:12;2.80;;;1.40;;
55082;SDS011;40978;52.850;6.506;2023-04-19T09:36:39;2.53;;;1.38;;
55082;SDS011;40978;52.850;6.506;2023-04-19T09:39:05;3.85;;;1.55;;
55082;SDS011;40978;52.850;6.506;2023-04-19T09:41:31;4.88;;;1.80;;
55082;SDS011;40978;52.850;6.506;2023-04-19T09:44:10;3.63;;;1.40;;
55082;SDS011;40978;52.850;6.506;2023-04-19T09:46:40;2.67;;;1.13;;
55082;SDS011;40978;52.850;6.506;2023-04-19T09:51:43;4.13;;;1.45;;
55082;SDS011;40978;52.850;6.506;2023-04-19T09:54:11;3.88;;;1.33;;
55082;SDS011;40978;52.850;6.506;2023-04-19T09:56:38;2.45;;;1.38;;
55082;SDS011;40978;52.850;6.506;2023-04-19T09:59:04;3.25;;;1.38;;
55082;SDS011;40978;52.850;6.506;2023-04-19T10:01:33;2.83;;;1.40;;
55082;SDS011;40978;52.850;6.506;2023-04-19T10:04:08;5.00;;;1.25;;
55082;SDS011;40978;52.850;6.506;2023-04-19T10:06:36;3.47;;;1.65;;
55082;SDS011;40978;52.850;6.506;2023-04-19T10:09:03;5.35;;;1.48;;
55082;SDS011;40978;52.850;6.506;2023-04-19T10:11:34;4.05;;;1.15;;
55082;SDS011;40978;52.850;6.506;2023-04-19T10:14:21;1.55;;;1.20;;
55082;SDS011;40978;52.850;6.506;2023-04-19T10:16:51;2.53;;;1.00;;
55082;SDS011;40978;52.850;6.506;2023-04-19T10:19:18;2.00;;;1.05;;
55082;SDS011;40978;52.850;6.506;2023-04-19T10:21:46;2.67;;;1.25;;
55082;SDS011;40978;52.850;6.506;2023-04-19T10:24:13;1.98;;;1.00;;
55082;SDS011;40978;52.850;6.506;2023-04-19T10:32:38;3.78;;;1.38;;
55082;SDS011;40978;52.850;6.506;2023-04-19T10:35:09;3.15;;;1.15;;
55082;SDS011;40978;52.850;6.506;2023-04-19T10:37:43;3.15;;;1.10;;
55082;SDS011;40978;52.850;6.506;2023-04-19T10:43:17;5.95;;;1.17;;
55082;SDS011;40978;52.850;6.506;2023-04-19T10:45:43;4.03;;;1.38;;
55082;SDS011;40978;52.850;6.506;2023-04-19T10:50:58;4.13;;;1.35;;
55082;SDS011;40978;52.850;6.506;2023-04-19T10:53:48;1.77;;;1.10;;
55082;SDS011;40978;52.850;6.506;2023-04-19T11:04:13;4.55;;;1.27;;
55082;SDS011;40978;52.850;6.506;2023-04-19T11:09:22;3.40;;;1.17;;
55082;SDS011;40978;52.850;6.506;2023-04-19T11:11:51;2.75;;;1.10;;
55082;SDS011;40978;52.850;6.506;2023-04-19T11:14:19;2.83;;;1.10;;
55082;SDS011;40978;52.850;6.506;2023-04-19T11:16:45;4.32;;;1.20;;
55082;SDS011;40978;52.850;6.506;2023-04-19T11:19:17;2.47;;;0.90;;
55082;SDS011;40978;52.850;6.506;2023-04-19T11:21:44;2.33;;;0.90;;
55082;SDS011;40978;52.850;6.506;2023-04-19T11:24:10;3.47;;;1.23;;
55082;SDS011;40978;52.850;6.506;2023-04-19T11:26:37;1.80;;;1.17;;
55082;SDS011;40978;52.850;6.506;2023-04-19T11:29:03;3.17;;;0.93;;
55082;SDS011;40978;52.850;6.506;2023-04-19T11:31:33;2.10;;;0.90;;
55082;SDS011;40978;52.850;6.506;2023-04-19T11:33:59;5.55;;;1.15;;
55082;SDS011;40978;52.850;6.506;2023-04-19T11:36:26;4.47;;;1.13;;
55082;SDS011;40978;52.850;6.506;2023-04-19T11:38:52;2.15;;;1.00;;
55082;SDS011;40978;52.850;6.506;2023-04-19T11:41:18;2.97;;;0.70;;
55082;SDS011;40978;52.850;6.506;2023-04-19T11:43:44;4.35;;;1.90;;
55082;SDS011;40978;52.850;6.506;2023-04-19T11:46:11;2.22;;;0.88;;
55082;SDS011;40978;52.850;6.506;2023-04-19T11:48:38;1.88;;;0.88;;
55082;SDS011;40978;52.850;6.506;2023-04-19T11:51:14;1.58;;;0.90;;
55082;SDS011;40978;52.850;6.506;2023-04-19T11:53:40;2.50;;;0.98;;
55082;SDS011;40978;52.850;6.506;2023-04-19T11:56:06;4.15;;;1.20;;
55082;SDS011;40978;52.850;6.506;2023-04-19T11:58:42;3.22;;;1.00;;
55082;SDS011;40978;52.850;6.506;2023-04-19T12:01:19;2.92;;;0.98;;
55082;SDS011;40978;52.850;6.506;2023-04-19T12:06:12;2.33;;;0.82;;
55082;SDS011;40978;52.850;6.506;2023-04-19T12:08:46;1.95;;;1.20;;
55082;SDS011;40978;52.850;6.506;2023-04-19T12:11:14;2.22;;;1.08;;
55082;SDS011;40978;52.850;6.506;2023-04-19T12:13:41;1.90;;;1.27;;
55082;SDS011;40978;52.850;6.506;2023-04-19T12:16:08;1.70;;;1.02;;
55082;SDS011;40978;52.850;6.506;2023-04-19T12:18:48;1.42;;;1.05;;
55082;SDS011;40978;52.850;6.506;2023-04-19T12:21:28;3.17;;;1.50;;
55082;SDS011;40978;52.850;6.506;2023-04-19T12:23:57;3.13;;;1.42;;
55082;SDS011;40978;52.850;6.506;2023-04-19T12:26:25;2.38;;;1.50;;
55082;SDS011;40978;52.850;6.506;2023-04-19T12:28:53;3.30;;;1.80;;
55082;SDS011;40978;52.850;6.506;2023-04-19T12:31:19;2.30;;;1.58;;
55082;SDS011;40978;52.850;6.506;2023-04-19T12:33:45;2.88;;;1.92;;
55082;SDS011;40978;52.850;6.506;2023-04-19T12:36:11;2.33;;;1.80;;
55082;SDS011;40978;52.850;6.506;2023-04-19T12:38:37;3.47;;;1.88;;
55082;SDS011;40978;52.850;6.506;2023-04-19T12:41:02;2.50;;;1.73;;
55082;SDS011;40978;52.850;6.506;2023-04-19T12:43:28;2.47;;;1.85;;
55082;SDS011;40978;52.850;6.506;2023-04-19T12:45:56;2.92;;;1.98;;
55082;SDS011;40978;52.850;6.506;2023-04-19T12:48:22;6.63;;;2.10;;
55082;SDS011;40978;52.850;6.506;2023-04-19T12:50:48;3.95;;;2.00;;
55082;SDS011;40978;52.850;6.506;2023-04-19T12:53:14;2.13;;;1.70;;
55082;SDS011;40978;52.850;6.506;2023-04-19T12:55:40;2.10;;;1.70;;
55082;SDS011;40978;52.850;6.506;2023-04-19T12:58:06;2.65;;;2.28;;
55082;SDS011;40978;52.850;6.506;2023-04-19T13:00:31;3.20;;;1.83;;
55082;SDS011;40978;52.850;6.506;2023-04-19T13:02:57;2.85;;;2.40;;
55082;SDS011;40978;52.850;6.506;2023-04-19T13:05:23;2.53;;;2.22;;
55082;SDS011;40978;52.850;6.506;2023-04-19T13:07:49;3.95;;;2.40;;
55082;SDS011;40978;52.850;6.506;2023-04-19T13:10:15;3.78;;;1.70;;
55082;SDS011;40978;52.850;6.506;2023-04-19T13:12:40;2.90;;;2.05;;
55082;SDS011;40978;52.850;6.506;2023-04-19T13:15:06;2.28;;;1.98;;
55082;SDS011;40978;52.850;6.506;2023-04-19T13:17:34;4.40;;;2.20;;
55082;SDS011;40978;52.850;6.506;2023-04-19T13:20:01;3.13;;;2.13;;
55082;SDS011;40978;52.850;6.506;2023-04-19T13:22:27;6.50;;;2.13;;
55082;SDS011;40978;52.850;6.506;2023-04-19T13:24:53;3.20;;;1.85;;
55082;SDS011;40978;52.850;6.506;2023-04-19T13:27:18;2.35;;;1.77;;
55082;SDS011;40978;52.850;6.506;2023-04-19T13:29:45;6.72;;;2.22;;
55082;SDS011;40978;52.850;6.506;2023-04-19T13:32:10;2.25;;;1.67;;
55082;SDS011;40978;52.850;6.506;2023-04-19T13:34:36;3.50;;;1.77;;
55082;SDS011;40978;52.850;6.506;2023-04-19T13:37:04;3.10;;;1.63;;
55082;SDS011;40978;52.850;6.506;2023-04-19T13:39:30;2.25;;;1.55;;
55082;SDS011;40978;52.850;6.506;2023-04-19T13:41:56;4.10;;;1.58;;
55082;SDS011;40978;52.850;6.506;2023-04-19T13:44:22;2.40;;;1.48;;
55082;SDS011;40978;52.850;6.506;2023-04-19T13:46:49;2.28;;;1.77;;
55082;SDS011;40978;52.850;6.506;2023-04-19T13:49:16;4.78;;;1.73;;
55082;SDS011;40978;52.850;6.506;2023-04-19T13:51:42;2.53;;;1.77;;
55082;SDS011;40978;52.850;6.506;2023-04-19T13:54:09;3.65;;;1.50;;
55082;SDS011;40978;52.850;6.506;2023-04-19T13:56:35;3.42;;;1.70;;
55082;SDS011;40978;52.850;6.506;2023-04-19T13:59:00;3.58;;;2.05;;
55082;SDS011;40978;52.850;6.506;2023-04-19T14:01:26;1.90;;;1.33;;
55082;SDS011;40978;52.850;6.506;2023-04-19T14:03:52;2.72;;;1.30;;
55082;SDS011;40978;52.850;6.506;2023-04-19T14:06:18;2.30;;;1.50;;
55082;SDS011;40978;52.850;6.506;2023-04-19T14:08:43;2.97;;;1.52;;
55082;SDS011;40978;52.850;6.506;2023-04-19T14:11:09;4.13;;;2.08;;
55082;SDS011;40978;52.850;6.506;2023-04-19T14:13:35;4.50;;;1.60;;
55082;SDS011;40978;52.850;6.506;2023-04-19T14:16:01;3.28;;;1.70;;
55082;SDS011;40978;52.850;6.506;2023-04-19T14:18:27;5.03;;;2.00;;
55082;SDS011;40978;52.850;6.506;2023-04-19T14:20:53;4.25;;;1.58;;
55082;SDS011;40978;52.850;6.506;2023-04-19T14:23:19;4.45;;;1.60;;
55082;SDS011;40978;52.850;6.506;2023-04-19T14:25:45;3.83;;;1.90;;
55082;SDS011;40978;52.850;6.506;2023-04-19T14:28:11;5.15;;;1.63;;
55082;SDS011;40978;52.850;6.506;2023-04-19T14:30:37;3.90;;;1.83;;
55082;SDS011;40978;52.850;6.506;2023-04-19T14:33:03;3.15;;;1.48;;
55082;SDS011;40978;52.850;6.506;2023-04-19T14:35:29;4.15;;;1.60;;
55082;SDS011;40978;52.850;6.506;2023-04-19T14:37:55;2.88;;;1.73;;
55082;SDS011;40978;52.850;6.506;2023-04-19T14:40:21;3.90;;;1.83;;
55082;SDS011;40978;52.850;6.506;2023-04-19T14:42:47;3.03;;;1.80;;
55082;SDS011;40978;52.850;6.506;2023-04-19T14:45:13;3.85;;;1.67;;
55082;SDS011;40978;52.850;6.506;2023-04-19T14:47:39;4.10;;;2.33;;
55082;SDS011;40978;52.850;6.506;2023-04-19T14:50:05;2.28;;;1.73;;
55082;SDS011;40978;52.850;6.506;2023-04-19T14:52:31;6.22;;;1.70;;
55082;SDS011;40978;52.850;6.506;2023-04-19T14:54:57;6.63;;;1.60;;
55082;SDS011;40978;52.850;6.506;2023-04-19T14:57:24;3.05;;;1.88;;
55082;SDS011;40978;52.850;6.506;2023-04-19T14:59:54;3.53;;;1.80;;
55082;SDS011;40978;52.850;6.506;2023-04-19T15:02:25;2.20;;;1.90;;
55082;SDS011;40978;52.850;6.506;2023-04-19T15:04:51;2.00;;;1.50;;
55082;SDS011;40978;52.850;6.506;2023-04-19T15:07:17;3.55;;;1.83;;
55082;SDS011;40978;52.850;6.506;2023-04-19T15:09:43;5.45;;;2.13;;